Time;durP1;ratioP1;P1;durP2;ratioP2;P2;SDS_P1;SDS_P2;PMS_P1;PMS_P2;Temp;Humidity;BMP_temperature;BMP_pressure;BME280_temperature;BME280_humidity;BME280_pressure;Samples;Min_cycle;Max_cycle;Signal;HPM_P1;HPM_P2
2024/01/16 00:00:00;;;;;;;0.40;0.40;;;1.00;99.90;;;;;;5009003;28;20042;-78
2024/01/16 00:02:25;;;;;;;0.30;0.30;;;1.00;99.90;;;;;;5016822;28;20048;-76
2024/01/16 00:04:51;;;;;;;4.70;1.10;;;0.90;99.90;;;;;;5002914;28;20041;-78
2024/01/16 00:07:17;;;;;;;0.73;0.37;;;1.00;99.90;;;;;;5017585;28;20046;-76
2024/01/16 00:09:42;;;;;;;0.73;0.40;;;1.00;99.90;;;;;;5002684;28;20751;-78
2024/01/16 00:12:08;;;;;;;2.27;1.13;;;1.00;99.90;;;;;;4985282;28;20238;-75
2024/01/16 00:14:37;;;;;;;0.27;0.27;;;1.00;99.90;;;;;;5030338;28;20050;-78
2024/01/16 00:17:03;;;;;;;0.57;0.57;;;1.00;99.90;;;;;;4995052;28;20485;-78
2024/01/16 00:19:29;;;;;;;0.83;0.83;;;1.00;99.90;;;;;;5029071;28;20253;-76
2024/01/16 00:21:54;;;;;;;1.27;1.17;;;0.90;99.90;;;;;;5025712;28;20081;-79
2024/01/16 00:24:20;;;;;;;0.87;0.87;;;0.90;99.90;;;;;;4987525;28;20511;-78
2024/01/16 00:26:46;;;;;;;0.50;0.50;;;0.90;99.90;;;;;;4994434;28;20540;-78
2024/01/16 00:29:12;;;;;;;0.30;0.30;;;0.90;99.90;;;;;;5014392;28;20041;-78
2024/01/16 00:31:41;;;;;;;2.80;1.23;;;0.90;99.90;;;;;;5021627;28;20103;-75
2024/01/16 00:34:07;;;;;;;1.87;0.90;;;0.90;99.90;;;;;;5011695;28;20121;-79
2024/01/16 00:36:33;;;;;;;0.80;0.63;;;0.90;99.90;;;;;;5012410;28;20105;-76
2024/01/16 00:38:58;;;;;;;0.77;0.77;;;0.90;99.90;;;;;;5006134;28;20520;-78
2024/01/16 00:41:24;;;;;;;1.47;1.10;;;0.90;99.90;;;;;;5018036;28;20129;-79
2024/01/16 00:43:50;;;;;;;0.53;0.53;;;0.90;99.90;;;;;;5016240;28;20087;-76
2024/01/16 00:46:15;;;;;;;0.97;0.70;;;0.90;99.90;;;;;;5008905;28;20050;-79
2024/01/16 00:48:41;;;;;;;0.97;0.97;;;0.90;99.90;;;;;;5013420;28;20049;-78
2024/01/16 00:51:06;;;;;;;1.00;0.63;;;0.80;99.90;;;;;;5009782;28;20156;-78
2024/01/16 00:53:32;;;;;;;1.37;1.27;;;0.80;99.90;;;;;;5019316;28;20534;-75
2024/01/16 00:55:57;;;;;;;3.97;1.00;;;0.80;99.90;;;;;;5031851;28;20074;-79
2024/01/16 00:58:24;;;;;;;0.30;0.30;;;0.80;99.90;;;;;;5019915;28;20049;-77
2024/01/16 01:00:49;;;;;;;0.87;0.77;;;0.80;99.90;;;;;;5017608;28;20478;-76
2024/01/16 01:03:15;;;;;;;0.30;0.30;;;0.80;99.90;;;;;;5013432;28;20042;-75
2024/01/16 01:05:41;;;;;;;0.20;0.20;;;0.80;99.90;;;;;;5023128;28;20819;-77
2024/01/16 01:08:07;;;;;;;0.43;0.43;;;0.80;99.90;;;;;;5036188;28;20085;-79
2024/01/16 01:10:32;;;;;;;2.80;1.73;;;0.80;99.90;;;;;;5006996;28;20064;-75
2024/01/16 01:12:58;;;;;;;3.50;2.03;;;0.80;99.90;;;;;;5006578;28;20495;-79
2024/01/16 01:15:24;;;;;;;4.90;1.60;;;0.80;99.90;;;;;;5024761;28;20045;-78
2024/01/16 01:17:50;;;;;;;0.97;0.87;;;0.80;99.90;;;;;;5025270;28;20040;-76
2024/01/16 01:20:18;;;;;;;0.93;0.40;;;0.80;99.90;;;;;;5024865;28;20041;-78
2024/01/16 01:22:44;;;;;;;0.50;0.50;;;0.70;99.90;;;;;;4990750;28;20095;-75
2024/01/16 01:25:11;;;;;;;0.50;0.50;;;0.80;99.90;;;;;;5006755;28;20129;-78
2024/01/16 01:27:38;;;;;;;0.60;0.60;;;0.70;99.90;;;;;;5006059;28;20044;-78
2024/01/16 01:30:04;;;;;;;0.10;0.10;;;0.80;99.90;;;;;;5006881;28;20049;-78
2024/01/16 01:32:29;;;;;;;0.90;0.47;;;0.80;99.90;;;;;;4990628;28;20062;-78
2024/01/16 01:34:55;;;;;;;0.27;0.27;;;0.80;99.90;;;;;;5006801;28;20059;-77
2024/01/16 01:37:20;;;;;;;0.40;0.40;;;0.80;99.90;;;;;;5007112;28;20056;-76
2024/01/16 01:39:46;;;;;;;1.53;1.27;;;0.80;99.90;;;;;;5007077;28;20040;-77
2024/01/16 01:42:11;;;;;;;7.10;2.43;;;0.80;99.90;;;;;;5024379;28;20465;-78
2024/01/16 01:44:37;;;;;;;2.47;2.27;;;0.90;99.90;;;;;;5023229;28;20100;-78
2024/01/16 01:47:03;;;;;;;0.60;0.57;;;0.90;99.90;;;;;;5006704;28;20049;-77
2024/01/16 01:49:30;;;;;;;6.13;2.00;;;1.00;99.90;;;;;;4990200;28;20037;-78
2024/01/16 01:51:56;;;;;;;0.30;0.30;;;1.00;99.90;;;;;;5006279;28;20054;-76
2024/01/16 01:54:23;;;;;;;1.47;1.00;;;1.10;99.90;;;;;;5024433;28;20048;-76
2024/01/16 01:56:49;;;;;;;2.30;0.70;;;1.10;99.90;;;;;;5009108;28;20056;-74
2024/01/16 01:59:18;;;;;;;0.50;0.50;;;1.10;99.90;;;;;;5032394;28;20038;-77
2024/01/16 02:01:45;;;;;;;0.73;0.33;;;1.00;99.90;;;;;;5019650;28;20646;-78
2024/01/16 02:04:14;;;;;;;0.20;0.20;;;1.10;99.90;;;;;;5003488;28;20049;-76
2024/01/16 02:06:44;;;;;;;0.97;0.93;;;1.00;99.90;;;;;;5019929;28;20546;-77
2024/01/16 02:09:13;;;;;;;0.33;0.33;;;1.00;99.90;;;;;;4969656;28;20558;-78
2024/01/16 02:11:39;;;;;;;0.20;0.20;;;1.00;99.90;;;;;;5008513;28;20080;-76
2024/01/16 02:14:04;;;;;;;0.87;0.70;;;1.00;99.90;;;;;;5035058;28;20060;-75
2024/01/16 02:16:39;;;;;;;0.50;0.50;;;1.00;99.90;;;;;;5004446;28;20050;-78
2024/01/16 02:19:06;;;;;;;0.10;0.10;;;0.90;99.90;;;;;;5020164;28;20088;-78
2024/01/16 02:21:39;;;;;;;0.60;0.60;;;0.90;99.90;;;;;;5004233;28;20133;-76
2024/01/16 02:24:08;;;;;;;0.33;0.33;;;0.90;99.90;;;;;;5023256;28;20042;-76
2024/01/16 02:26:33;;;;;;;1.23;0.80;;;0.90;99.90;;;;;;5006389;28;20042;-76
2024/01/16 02:29:02;;;;;;;1.40;1.20;;;0.90;99.90;;;;;;5019558;28;20064;-78
2024/01/16 02:31:28;;;;;;;0.40;0.40;;;0.90;99.90;;;;;;4996505;28;20673;-77
2024/01/16 02:33:53;;;;;;;1.03;0.93;;;0.80;99.90;;;;;;5020966;28;20042;-77
2024/01/16 02:36:19;;;;;;;1.10;1.10;;;0.80;99.90;;;;;;5006287;28;20088;-78
2024/01/16 02:38:44;;;;;;;0.43;0.43;;;0.80;99.90;;;;;;5023746;28;20042;-77
2024/01/16 02:41:13;;;;;;;0.27;0.27;;;0.80;99.90;;;;;;5036673;28;20057;-75
2024/01/16 02:43:39;;;;;;;3.37;2.00;;;0.80;99.90;;;;;;5031969;28;21281;-77
2024/01/16 02:46:04;;;;;;;1.17;1.13;;;0.80;99.90;;;;;;5015017;28;20041;-78
2024/01/16 02:48:30;;;;;;;1.03;0.93;;;0.80;99.90;;;;;;5011053;28;20121;-76
2024/01/16 02:50:56;;;;;;;1.03;0.93;;;0.80;99.90;;;;;;5003080;28;20052;-76
2024/01/16 02:53:21;;;;;;;1.53;1.43;;;0.80;99.90;;;;;;5029519;28;20041;-78
2024/01/16 02:55:47;;;;;;;0.97;0.77;;;0.80;99.90;;;;;;5038674;28;20054;-78
2024/01/16 02:58:12;;;;;;;2.03;1.03;;;0.80;99.90;;;;;;5024660;28;20137;-78
2024/01/16 03:00:38;;;;;;;1.20;1.10;;;0.90;99.90;;;;;;5028448;28;20064;-76
2024/01/16 03:03:04;;;;;;;0.70;0.47;;;0.90;99.90;;;;;;5014619;28;20450;-78
2024/01/16 03:05:30;;;;;;;1.33;1.23;;;0.90;99.90;;;;;;5022445;28;20041;-78
2024/01/16 03:07:55;;;;;;;0.83;0.83;;;0.90;99.90;;;;;;5018660;28;20524;-78
2024/01/16 03:10:21;;;;;;;2.60;1.10;;;0.90;99.90;;;;;;5001607;28;20072;-77
2024/01/16 03:12:47;;;;;;;1.83;1.70;;;0.90;99.90;;;;;;5018126;28;20446;-75
2024/01/16 03:15:12;;;;;;;1.17;1.00;;;0.90;99.90;;;;;;5006985;28;20487;-78
2024/01/16 03:17:38;;;;;;;0.60;0.60;;;0.90;99.90;;;;;;5021315;28;20041;-76
2024/01/16 03:20:04;;;;;;;0.53;0.53;;;0.90;99.90;;;;;;5030107;28;20048;-76
2024/01/16 03:22:29;;;;;;;2.67;1.07;;;0.90;99.90;;;;;;5001315;28;20046;-75
2024/01/16 03:24:55;;;;;;;7.93;1.50;;;0.90;99.90;;;;;;5027753;28;20038;-78
2024/01/16 03:27:21;;;;;;;1.13;0.90;;;1.00;99.90;;;;;;5031301;28;20499;-78
2024/01/16 03:29:46;;;;;;;0.57;0.57;;;1.00;99.90;;;;;;5034650;28;20049;-77
2024/01/16 03:32:12;;;;;;;0.90;0.80;;;0.90;99.90;;;;;;5002594;28;20138;-77
2024/01/16 03:34:37;;;;;;;1.00;0.57;;;0.90;99.90;;;;;;5020434;28;20053;-77
2024/01/16 03:37:03;;;;;;;1.43;1.00;;;0.90;99.90;;;;;;5009852;28;20042;-78
2024/01/16 03:39:28;;;;;;;6.50;0.80;;;0.90;99.90;;;;;;5037196;28;20046;-75
2024/01/16 03:41:54;;;;;;;1.17;0.60;;;0.90;99.90;;;;;;5009417;28;20084;-78
2024/01/16 03:44:19;;;;;;;1.40;1.30;;;0.90;99.90;;;;;;5018324;28;20038;-75
2024/01/16 03:46:45;;;;;;;1.73;1.63;;;0.90;99.90;;;;;;5008250;28;20041;-78
2024/01/16 03:49:11;;;;;;;1.17;0.73;;;0.90;99.90;;;;;;5021256;28;20076;-76
2024/01/16 03:51:36;;;;;;;1.40;1.30;;;0.90;99.90;;;;;;5022344;28;20047;-76
2024/01/16 03:54:02;;;;;;;1.13;1.03;;;0.90;99.90;;;;;;5021122;28;20136;-78
2024/01/16 03:56:28;;;;;;;0.33;0.33;;;0.90;99.90;;;;;;4999128;28;20053;-78
2024/01/16 03:58:54;;;;;;;0.73;0.50;;;0.90;99.90;;;;;;5006081;28;20045;-78
2024/01/16 04:01:30;;;;;;;0.37;0.37;;;0.80;99.90;;;;;;5003954;28;20492;-77
2024/01/16 04:03:56;;;;;;;3.50;0.67;;;0.80;99.90;;;;;;5020363;28;20745;-78
2024/01/16 04:06:21;;;;;;;2.77;1.30;;;0.90;99.90;;;;;;5020179;28;20080;-78
2024/01/16 04:08:47;;;;;;;0.70;0.70;;;0.90;99.90;;;;;;5017774;28;20400;-78
2024/01/16 04:11:13;;;;;;;1.40;0.53;;;0.90;99.90;;;;;;5002155;28;20444;-76
2024/01/16 04:13:39;;;;;;;7.73;2.40;;;0.90;99.90;;;;;;5001718;28;20200;-78
2024/01/16 04:16:05;;;;;;;3.73;1.17;;;0.90;99.90;;;;;;5001999;28;20050;-76
2024/01/16 04:18:39;;;;;;;1.30;1.30;;;0.80;99.90;;;;;;5036407;28;20514;-79
2024/01/16 04:21:04;;;;;;;2.27;1.20;;;0.80;99.90;;;;;;5036903;28;20077;-78
2024/01/16 04:23:30;;;;;;;0.33;0.33;;;0.80;99.90;;;;;;5021749;28;20069;-75
2024/01/16 04:25:55;;;;;;;0.87;0.87;;;0.80;99.90;;;;;;5003907;28;20057;-75
2024/01/16 04:28:21;;;;;;;3.03;1.10;;;0.80;99.90;;;;;;5018512;28;20600;-77
2024/01/16 04:30:47;;;;;;;0.53;0.53;;;0.80;99.90;;;;;;5028621;28;20120;-77
2024/01/16 04:33:12;;;;;;;1.07;0.50;;;0.90;99.90;;;;;;4991083;28;20496;-74
2024/01/16 04:35:38;;;;;;;0.57;0.53;;;0.80;99.90;;;;;;5040924;28;20049;-77
2024/01/16 04:38:03;;;;;;;0.10;0.10;;;0.90;99.90;;;;;;5025464;28;20107;-78
2024/01/16 04:40:29;;;;;;;0.30;0.30;;;0.90;99.90;;;;;;5009766;28;20575;-76
2024/01/16 04:42:54;;;;;;;0.67;0.67;;;0.90;99.90;;;;;;4997661;28;20038;-79
2024/01/16 04:45:20;;;;;;;0.50;0.50;;;0.90;99.90;;;;;;5020940;28;20049;-77
2024/01/16 04:47:46;;;;;;;0.60;0.50;;;0.90;99.90;;;;;;5039970;28;20455;-74
2024/01/16 04:50:11;;;;;;;0.40;0.40;;;0.90;99.90;;;;;;5023955;28;20061;-78
2024/01/16 04:52:37;;;;;;;0.27;0.27;;;0.90;99.90;;;;;;5021383;28;20080;-78
2024/01/16 04:55:03;;;;;;;1.90;1.23;;;0.90;99.90;;;;;;5025133;28;20131;-75
2024/01/16 04:57:29;;;;;;;0.20;0.20;;;0.90;99.90;;;;;;5023992;28;20054;-77
2024/01/16 04:59:54;;;;;;;1.23;0.40;;;0.90;99.90;;;;;;5010015;28;20598;-79
2024/01/16 05:02:20;;;;;;;1.03;0.90;;;0.90;99.90;;;;;;4996457;28;20208;-77
2024/01/16 05:04:49;;;;;;;1.97;1.47;;;0.90;99.90;;;;;;5020163;28;20491;-78
2024/01/16 05:07:15;;;;;;;0.57;0.57;;;0.90;99.90;;;;;;5004280;28;20053;-76
2024/01/16 05:09:40;;;;;;;0.90;0.63;;;0.90;99.90;;;;;;5029664;28;20041;-77
2024/01/16 05:12:06;;;;;;;3.03;1.17;;;0.90;99.90;;;;;;5024975;28;20054;-78
2024/01/16 05:14:32;;;;;;;2.00;1.30;;;1.00;99.90;;;;;;5017334;28;20393;-76
2024/01/16 05:16:57;;;;;;;1.23;0.87;;;1.00;99.90;;;;;;5020682;28;20133;-78
2024/01/16 05:19:23;;;;;;;0.50;0.50;;;1.00;99.90;;;;;;5014383;28;20076;-77
2024/01/16 05:21:48;;;;;;;2.20;1.60;;;1.00;99.90;;;;;;5040922;28;20411;-78
2024/01/16 05:24:14;;;;;;;0.60;0.60;;;1.00;99.90;;;;;;5006386;28;20049;-76
2024/01/16 05:26:40;;;;;;;0.70;0.70;;;1.00;99.90;;;;;;5018070;28;20041;-78
2024/01/16 05:29:06;;;;;;;1.60;1.17;;;1.00;99.90;;;;;;5021521;28;20041;-77
2024/01/16 05:31:32;;;;;;;0.47;0.47;;;1.00;99.90;;;;;;5013136;28;20049;-76
2024/01/16 05:33:58;;;;;;;0.77;0.63;;;1.00;99.90;;;;;;5024467;28;20037;-78
2024/01/16 05:36:24;;;;;;;1.50;1.40;;;1.00;99.90;;;;;;5017174;28;20859;-77
2024/01/16 05:38:50;;;;;;;0.97;0.93;;;1.00;99.90;;;;;;5034758;28;20141;-78
2024/01/16 05:41:16;;;;;;;7.40;1.43;;;0.90;99.90;;;;;;5023427;28;20173;-78
2024/01/16 05:43:41;;;;;;;2.40;1.53;;;0.90;99.90;;;;;;5018328;28;20057;-78
2024/01/16 05:46:07;;;;;;;0.50;0.50;;;0.90;99.90;;;;;;5019726;28;20400;-78
2024/01/16 05:48:32;;;;;;;1.17;1.00;;;0.90;99.90;;;;;;5024448;28;20037;-76
2024/01/16 05:50:58;;;;;;;0.67;0.67;;;0.90;99.90;;;;;;5033668;28;20183;-78
2024/01/16 05:53:23;;;;;;;3.03;2.17;;;0.90;99.90;;;;;;5018510;28;20093;-75
2024/01/16 05:55:49;;;;;;;0.33;0.33;;;0.90;99.90;;;;;;5040239;28;20211;-74
2024/01/16 05:58:14;;;;;;;8.73;1.00;;;0.90;99.90;;;;;;5019135;28;20115;-78
2024/01/16 06:00:40;;;;;;;0.30;0.30;;;0.90;99.90;;;;;;5015323;28;20073;-76
2024/01/16 06:03:06;;;;;;;0.97;0.97;;;0.90;99.90;;;;;;5007910;28;20080;-79
2024/01/16 06:05:31;;;;;;;2.37;0.87;;;0.90;99.90;;;;;;5016884;28;20550;-76
2024/01/16 06:07:57;;;;;;;1.03;0.53;;;0.90;99.90;;;;;;5020335;28;20435;-75
2024/01/16 06:10:22;;;;;;;1.40;1.30;;;0.90;99.90;;;;;;5015682;28;20471;-78
2024/01/16 06:12:48;;;;;;;2.23;0.87;;;0.90;99.90;;;;;;5030179;28;20058;-79
2024/01/16 06:15:14;;;;;;;0.40;0.40;;;0.90;99.90;;;;;;4997478;28;20080;-78
2024/01/16 06:17:39;;;;;;;1.47;1.37;;;0.90;99.90;;;;;;5020133;28;20045;-79
2024/01/16 06:20:06;;;;;;;1.30;0.93;;;1.00;99.90;;;;;;5032584;28;20053;-78
2024/01/16 06:22:32;;;;;;;3.67;1.10;;;1.00;99.90;;;;;;5005969;28;20411;-81
2024/01/16 06:24:57;;;;;;;2.00;1.40;;;1.00;99.90;;;;;;5022674;28;20042;-79
2024/01/16 06:27:23;;;;;;;3.30;1.00;;;1.00;99.90;;;;;;5033840;28;20319;-76
2024/01/16 06:29:49;;;;;;;0.77;0.77;;;1.00;99.90;;;;;;5021583;28;20038;-79
2024/01/16 06:32:14;;;;;;;2.30;0.83;;;1.00;99.90;;;;;;5004719;28;20045;-78
2024/01/16 06:34:40;;;;;;;0.37;0.37;;;1.00;99.90;;;;;;5030940;28;20092;-76
2024/01/16 06:37:06;;;;;;;3.07;0.80;;;1.00;99.90;;;;;;5000766;28;20053;-76
2024/01/16 06:39:31;;;;;;;1.03;0.70;;;1.00;99.90;;;;;;5021462;28;20044;-76
2024/01/16 06:41:57;;;;;;;1.17;1.17;;;1.00;99.90;;;;;;5019820;28;20041;-76
2024/01/16 06:44:22;;;;;;;12.63;2.57;;;1.00;99.90;;;;;;5004621;28;20480;-80
2024/01/16 06:46:48;;;;;;;1.10;0.83;;;1.00;99.90;;;;;;5018658;28;20041;-80
2024/01/16 06:49:13;;;;;;;1.30;1.23;;;1.00;99.90;;;;;;5017452;28;20041;-80
2024/01/16 06:51:39;;;;;;;2.73;1.03;;;1.00;99.90;;;;;;5005055;28;20052;-80
2024/01/16 06:54:05;;;;;;;2.30;1.50;;;1.00;99.90;;;;;;5004578;28;20049;-80
2024/01/16 06:56:31;;;;;;;6.53;2.53;;;1.00;99.90;;;;;;5004738;28;20133;-80
2024/01/16 06:58:57;;;;;;;1.67;1.53;;;1.00;99.90;;;;;;4999865;28;20041;-80
2024/01/16 07:01:23;;;;;;;4.50;2.00;;;1.00;99.90;;;;;;5005191;28;20052;-80
2024/01/16 07:03:48;;;;;;;7.60;1.60;;;1.00;99.90;;;;;;5022380;28;20092;-80
2024/01/16 07:06:14;;;;;;;0.80;0.60;;;1.00;99.90;;;;;;5004499;28;20184;-80
2024/01/16 07:08:39;;;;;;;0.40;0.40;;;1.00;99.90;;;;;;5003188;28;20099;-80
2024/01/16 07:11:08;;;;;;;0.80;0.80;;;0.90;99.90;;;;;;4998327;28;20045;-88
2024/01/16 07:13:36;;;;;;;1.70;0.77;;;0.90;99.90;;;;;;4976586;28;20042;-81
2024/01/16 07:16:02;;;;;;;4.57;1.37;;;0.90;99.90;;;;;;4998789;28;20128;-81
2024/01/16 07:18:28;;;;;;;2.20;1.80;;;0.90;99.90;;;;;;5012212;28;20136;-80
2024/01/16 07:20:54;;;;;;;4.03;2.70;;;0.90;99.90;;;;;;5020553;28;20047;-80
2024/01/16 07:23:19;;;;;;;0.30;0.30;;;0.80;99.90;;;;;;5021617;28;20037;-80
2024/01/16 07:25:45;;;;;;;0.70;0.70;;;0.80;99.90;;;;;;5037385;28;20058;-80
2024/01/16 07:28:10;;;;;;;0.80;0.80;;;0.80;99.90;;;;;;5002199;28;20482;-80
2024/01/16 07:30:36;;;;;;;1.23;0.83;;;0.80;99.90;;;;;;5036554;28;20045;-84
2024/01/16 07:33:03;;;;;;;0.93;0.73;;;0.80;99.90;;;;;;5003537;28;20508;-77
2024/01/16 07:35:28;;;;;;;0.50;0.50;;;0.80;99.90;;;;;;5036171;28;20130;-80
2024/01/16 07:37:54;;;;;;;1.40;0.93;;;0.80;99.90;;;;;;5020711;28;20045;-80
2024/01/16 07:40:20;;;;;;;0.33;0.33;;;0.90;99.90;;;;;;5019486;28;20046;-80
2024/01/16 07:42:46;;;;;;;14.83;1.30;;;0.80;99.90;;;;;;5036655;28;20085;-81
2024/01/16 07:45:11;;;;;;;1.30;1.20;;;0.90;99.90;;;;;;4985926;28;20081;-80
2024/01/16 07:47:37;;;;;;;1.20;1.13;;;0.90;99.90;;;;;;5021170;28;20397;-81
2024/01/16 07:50:03;;;;;;;0.53;0.53;;;1.00;99.90;;;;;;5035140;28;20052;-80
2024/01/16 07:52:29;;;;;;;0.97;0.97;;;1.00;99.90;;;;;;5036159;28;20041;-79
2024/01/16 07:54:54;;;;;;;0.27;0.27;;;0.90;99.90;;;;;;5020435;28;20046;-80
2024/01/16 07:57:20;;;;;;;2.67;1.17;;;1.00;99.90;;;;;;5019744;28;20124;-80
2024/01/16 07:59:46;;;;;;;1.80;1.33;;;1.00;99.90;;;;;;5017372;28;20037;-81
2024/01/16 08:02:11;;;;;;;1.10;0.70;;;1.00;99.90;;;;;;5015664;28;20567;-80
2024/01/16 08:04:37;;;;;;;0.90;0.90;;;1.00;99.90;;;;;;5000093;28;20681;-79
2024/01/16 08:07:03;;;;;;;0.80;0.80;;;1.00;99.90;;;;;;5017269;28;20424;-80
2024/01/16 08:09:28;;;;;;;0.50;0.50;;;1.10;99.90;;;;;;5027143;28;20030;-80
2024/01/16 08:11:54;;;;;;;0.53;0.53;;;1.10;99.90;;;;;;5019163;28;20048;-80
2024/01/16 08:14:19;;;;;;;1.43;0.87;;;1.10;99.90;;;;;;5024315;28;20306;-80
2024/01/16 08:16:45;;;;;;;0.30;0.30;;;1.10;99.90;;;;;;5024740;28;20057;-80
2024/01/16 08:19:11;;;;;;;0.87;0.73;;;1.10;99.90;;;;;;5006346;28;20058;-79
2024/01/16 08:21:36;;;;;;;0.17;0.10;;;1.10;99.90;;;;;;5007112;28;20503;-79
2024/01/16 08:24:02;;;;;;;4.57;1.40;;;1.10;99.90;;;;;;5005929;28;20045;-80
2024/01/16 08:26:28;;;;;;;1.40;0.70;;;1.00;99.90;;;;;;5006134;28;20076;-79
2024/01/16 08:28:54;;;;;;;0.50;0.50;;;1.10;99.90;;;;;;5006024;28;20049;-80
2024/01/16 08:31:20;;;;;;;1.20;1.00;;;1.00;99.90;;;;;;5006922;28;20508;-80
2024/01/16 08:33:46;;;;;;;1.50;0.30;;;1.10;99.90;;;;;;5007136;28;20033;-80
2024/01/16 08:36:11;;;;;;;0.47;0.47;;;1.00;99.90;;;;;;5023832;28;20361;-80
2024/01/16 08:38:37;;;;;;;0.53;0.53;;;1.00;99.90;;;;;;5006814;28;20397;-80
2024/01/16 08:41:06;;;;;;;3.23;1.53;;;1.00;99.90;;;;;;5023529;28;20268;-81
2024/01/16 08:43:35;;;;;;;7.93;0.60;;;1.00;99.90;;;;;;5005852;28;20321;-79
2024/01/16 08:46:01;;;;;;;0.87;0.57;;;1.00;99.90;;;;;;5006323;28;20041;-81
2024/01/16 08:48:27;;;;;;;0.60;0.60;;;1.00;99.90;;;;;;5006648;28;20464;-81
2024/01/16 08:50:54;;;;;;;1.50;0.90;;;1.00;99.90;;;;;;5005514;28;20285;-80
2024/01/16 08:53:22;;;;;;;1.20;1.13;;;1.00;99.90;;;;;;5006428;28;20090;-80
2024/01/16 08:55:48;;;;;;;0.10;0.10;;;1.00;99.90;;;;;;5006094;28;20049;-80
2024/01/16 08:58:13;;;;;;;0.43;0.30;;;1.00;99.90;;;;;;5022502;28;20560;-77
2024/01/16 09:00:39;;;;;;;1.60;0.87;;;1.00;99.90;;;;;;5022520;28;20087;-78
2024/01/16 09:03:05;;;;;;;0.50;0.50;;;1.00;99.90;;;;;;5038836;28;20068;-78
2024/01/16 09:05:30;;;;;;;0.40;0.37;;;1.10;99.90;;;;;;5021529;28;20060;-78
2024/01/16 09:07:56;;;;;;;1.80;0.93;;;1.10;99.90;;;;;;5022290;28;20504;-77
2024/01/16 09:10:21;;;;;;;0.17;0.17;;;1.10;99.90;;;;;;5006080;28;20122;-77
2024/01/16 09:12:48;;;;;;;1.33;0.67;;;1.20;99.90;;;;;;5038236;28;20521;-77
2024/01/16 09:15:14;;;;;;;0.20;0.20;;;1.20;99.90;;;;;;5034759;28;20053;-77
2024/01/16 09:17:39;;;;;;;0.60;0.60;;;1.30;99.90;;;;;;5034779;28;20100;-78
2024/01/16 09:20:06;;;;;;;7.57;1.90;;;1.30;99.90;;;;;;5035497;28;20133;-77
2024/01/16 09:22:32;;;;;;;0.40;0.40;;;1.30;99.90;;;;;;5001887;28;20056;-78
2024/01/16 09:24:58;;;;;;;0.87;0.87;;;1.30;99.90;;;;;;5002906;28;20029;-76
2024/01/16 09:27:23;;;;;;;0.63;0.33;;;1.30;99.90;;;;;;5001591;28;20045;-78
2024/01/16 09:29:49;;;;;;;2.20;0.70;;;1.30;99.90;;;;;;5018814;28;20053;-77
2024/01/16 09:32:14;;;;;;;0.10;0.10;;;1.30;99.90;;;;;;5002333;28;20157;-77
2024/01/16 09:34:40;;;;;;;0.57;0.40;;;1.30;99.90;;;;;;5001792;28;20041;-77
2024/01/16 09:37:05;;;;;;;1.20;0.53;;;1.30;99.90;;;;;;5018106;28;20053;-77
2024/01/16 09:39:32;;;;;;;0.30;0.30;;;1.30;99.90;;;;;;5018126;28;20041;-78
2024/01/16 09:42:03;;;;;;;0.87;0.87;;;1.30;99.90;;;;;;5001314;28;20265;-77
2024/01/16 09:44:29;;;;;;;0.43;0.43;;;1.30;99.90;;;;;;5035559;28;20049;-77
2024/01/16 09:46:56;;;;;;;0.87;0.87;;;1.30;99.90;;;;;;5000964;28;20125;-77
2024/01/16 09:49:23;;;;;;;0.20;0.20;;;1.30;99.90;;;;;;5018033;28;20314;-77
2024/01/16 09:51:49;;;;;;;0.43;0.43;;;1.30;99.90;;;;;;5035546;28;20073;-77
2024/01/16 09:54:15;;;;;;;1.43;1.17;;;1.40;99.90;;;;;;5017595;28;20062;-77
2024/01/16 09:56:45;;;;;;;2.93;1.37;;;1.40;99.90;;;;;;5000789;28;20073;-77
2024/01/16 09:59:16;;;;;;;0.10;0.10;;;1.40;99.90;;;;;;5034928;28;20049;-77
2024/01/16 10:01:42;;;;;;;1.40;0.73;;;1.40;99.90;;;;;;4982069;28;20401;-77
2024/01/16 10:04:08;;;;;;;0.67;0.60;;;1.40;99.90;;;;;;5014130;28;20050;-77
2024/01/16 10:06:36;;;;;;;0.47;0.47;;;1.40;99.90;;;;;;5014814;28;20069;-77
2024/01/16 10:09:02;;;;;;;0.45;0.35;;;1.40;99.90;;;;;;5014026;28;20101;-78
2024/01/16 10:11:29;;;;;;;0.23;0.23;;;1.40;99.90;;;;;;5013718;28;20050;-77
2024/01/16 10:13:55;;;;;;;0.87;0.60;;;1.50;99.90;;;;;;4982295;28;20042;-77
2024/01/16 10:16:21;;;;;;;0.20;0.20;;;1.50;99.90;;;;;;5014735;28;20489;-78
2024/01/16 10:18:47;;;;;;;3.53;1.13;;;1.50;99.90;;;;;;4982891;28;20173;-77
2024/01/16 10:21:22;;;;;;;0.50;0.50;;;1.50;99.90;;;;;;4982388;28;20176;-77
2024/01/16 10:23:49;;;;;;;0.67;0.67;;;1.50;99.90;;;;;;5014912;28;20050;-77
2024/01/16 10:26:14;;;;;;;0.53;0.53;;;1.50;99.90;;;;;;4996700;28;20046;-77
2024/01/16 10:28:42;;;;;;;0.57;0.57;;;1.60;99.90;;;;;;5013915;28;20054;-77
2024/01/16 10:31:13;;;;;;;1.37;0.90;;;1.60;99.90;;;;;;4982041;28;20049;-78
2024/01/16 10:33:40;;;;;;;0.30;0.30;;;1.60;99.90;;;;;;5014326;28;20089;-77
2024/01/16 10:36:12;;;;;;;0.20;0.20;;;1.60;99.90;;;;;;4981436;28;20540;-78
2024/01/16 10:38:41;;;;;;;0.65;0.50;;;1.60;99.90;;;;;;5013792;28;20038;-77
2024/01/16 10:41:12;;;;;;;1.80;1.10;;;1.60;99.90;;;;;;5012633;28;20046;-78
2024/01/16 10:43:38;;;;;;;2.57;1.10;;;1.60;99.90;;;;;;4982000;28;20042;-77
2024/01/16 10:46:15;;;;;;;0.30;0.30;;;1.60;99.90;;;;;;4981933;28;20389;-77
2024/01/16 10:48:57;;;;;;;0.87;0.60;;;1.70;99.90;;;;;;4982532;28;20042;-77
2024/01/16 10:51:23;;;;;;;0.32;0.32;;;1.70;99.90;;;;;;4981417;28;20042;-77
2024/01/16 10:53:51;;;;;;;1.73;1.63;;;1.70;99.90;;;;;;4982761;28;20038;-77
2024/01/16 10:56:18;;;;;;;0.30;0.30;;;1.70;99.90;;;;;;5012778;28;20042;-77
2024/01/16 10:58:49;;;;;;;0.10;0.10;;;1.60;99.90;;;;;;4991758;28;20053;-75
2024/01/16 11:01:16;;;;;;;0.33;0.33;;;1.60;99.90;;;;;;5002768;28;20400;-78
2024/01/16 11:03:50;;;;;;;0.40;0.30;;;1.60;99.90;;;;;;5028895;28;20300;-77
2024/01/16 11:06:18;;;;;;;0.30;0.30;;;1.60;99.90;;;;;;5021794;28;20050;-77
2024/01/16 11:08:48;;;;;;;1.40;1.33;;;1.50;99.90;;;;;;5003018;28;20042;-77
2024/01/16 11:11:15;;;;;;;0.77;0.77;;;1.50;99.90;;;;;;5001412;28;20076;-77
2024/01/16 11:13:46;;;;;;;0.70;0.67;;;1.60;99.90;;;;;;5001833;28;20050;-80
2024/01/16 11:16:12;;;;;;;0.43;0.30;;;1.60;99.90;;;;;;4981078;28;20555;-77
2024/01/16 11:18:39;;;;;;;0.47;0.47;;;1.60;99.90;;;;;;4980916;28;20042;-77
2024/01/16 11:21:11;;;;;;;1.10;0.70;;;1.50;99.90;;;;;;5005680;28;20077;-77
2024/01/16 11:23:37;;;;;;;0.77;0.77;;;1.50;99.90;;;;;;4979848;28;20053;-78
2024/01/16 11:26:32;;;;;;;0.90;0.73;;;1.50;99.90;;;;;;4975110;28;20046;-78
2024/01/16 11:29:01;;;;;;;0.50;0.50;;;1.50;99.90;;;;;;4969244;28;20510;-75
2024/01/16 11:31:32;;;;;;;2.70;1.50;;;1.50;99.90;;;;;;4979974;28;20133;-77
2024/01/16 11:34:01;;;;;;;8.40;2.30;;;1.60;99.90;;;;;;4996107;28;20042;-77
2024/01/16 11:36:43;;;;;;;1.33;0.53;;;1.60;99.90;;;;;;4979582;28;20050;-77
2024/01/16 11:39:16;;;;;;;0.73;0.70;;;1.70;99.90;;;;;;5013372;28;20511;-77
2024/01/16 11:41:55;;;;;;;0.80;0.80;;;1.70;99.90;;;;;;4979716;28;20038;-78
2024/01/16 11:44:40;;;;;;;2.07;1.10;;;1.70;99.90;;;;;;5012927;28;20148;-77
2024/01/16 11:47:06;;;;;;;0.50;0.50;;;1.70;99.90;;;;;;5012152;28;20057;-77
2024/01/16 11:49:32;;;;;;;0.30;0.30;;;1.80;99.90;;;;;;5012636;28;20521;-78
2024/01/16 11:51:58;;;;;;;0.60;0.60;;;1.80;99.90;;;;;;5010858;28;20034;-77
2024/01/16 11:54:24;;;;;;;0.67;0.67;;;1.90;99.90;;;;;;4979124;28;20512;-76
2024/01/16 11:57:05;;;;;;;5.20;1.43;;;1.90;99.90;;;;;;5010651;28;20047;-78
2024/01/16 11:59:54;;;;;;;1.43;1.40;;;2.00;99.90;;;;;;4979926;28;20053;-77
2024/01/16 12:02:53;;;;;;;0.83;0.83;;;2.00;99.90;;;;;;4996584;28;20420;-78
2024/01/16 12:05:20;;;;;;;0.30;0.30;;;2.00;99.90;;;;;;4980596;28;20085;-78
2024/01/16 12:07:50;;;;;;;2.87;1.00;;;2.10;99.90;;;;;;4978307;28;20054;-77
2024/01/16 12:10:24;;;;;;;1.27;1.27;;;2.10;99.90;;;;;;4994868;28;20069;-76
2024/01/16 12:12:51;;;;;;;3.37;1.37;;;2.10;99.90;;;;;;4978125;28;20628;-78
2024/01/16 12:15:20;;;;;;;0.60;0.60;;;2.10;99.90;;;;;;4984119;28;20128;-76
2024/01/16 12:17:57;;;;;;;1.17;1.17;;;2.10;99.90;;;;;;5024343;28;20078;-76
2024/01/16 12:20:28;;;;;;;1.57;1.20;;;2.10;99.90;;;;;;5007686;28;20047;-76
2024/01/16 12:22:55;;;;;;;1.00;1.00;;;2.10;99.90;;;;;;4999262;28;20053;-75
2024/01/16 12:25:21;;;;;;;0.73;0.73;;;2.10;99.90;;;;;;4999367;28;20393;-76
2024/01/16 12:27:57;;;;;;;1.37;1.27;;;2.00;99.90;;;;;;4998418;28;20129;-74
2024/01/16 12:30:28;;;;;;;0.60;0.60;;;2.00;99.90;;;;;;4999897;28;20141;-75
2024/01/16 12:33:07;;;;;;;2.17;1.27;;;2.00;99.90;;;;;;4998837;28;20037;-75
2024/01/16 12:35:37;;;;;;;1.13;1.02;;;2.00;99.90;;;;;;4999204;28;20041;-75
2024/01/16 12:38:11;;;;;;;1.42;1.42;;;1.90;99.90;;;;;;5000148;28;20056;-75
2024/01/16 12:40:39;;;;;;;0.63;0.63;;;1.90;99.90;;;;;;5015816;28;20041;-76
2024/01/16 12:43:06;;;;;;;5.87;2.40;;;1.90;99.90;;;;;;5015311;28;20042;-75
2024/01/16 12:45:33;;;;;;;7.03;1.10;;;1.90;99.90;;;;;;5032143;28;20113;-75
2024/01/16 12:48:00;;;;;;;0.87;0.87;;;2.00;99.90;;;;;;4999144;28;20496;-75
2024/01/16 12:50:27;;;;;;;1.87;1.77;;;1.90;99.90;;;;;;5018712;28;20113;-75
2024/01/16 12:53:07;;;;;;;0.70;0.70;;;2.00;99.90;;;;;;5029706;28;20046;-76
2024/01/16 12:55:34;;;;;;;1.00;1.00;;;2.00;99.90;;;;;;5003162;28;20117;-75